sensor_id;sensor_type;location;lat;lon;timestamp;P1;durP1;ratioP1;P2;durP2;ratioP2
41061;SDS011;26812;42.662;23.352;2022-10-26T00:02:24;9.55;;;4.25;;
41061;SDS011;26812;42.662;23.352;2022-10-26T00:04:56;8.48;;;4.32;;
41061;SDS011;26812;42.662;23.352;2022-10-26T00:07:21;8.80;;;4.70;;
41061;SDS011;26812;42.662;23.352;2022-10-26T00:09:47;6.57;;;4.32;;
41061;SDS011;26812;42.662;23.352;2022-10-26T00:12:12;10.40;;;4.80;;
41061;SDS011;26812;42.662;23.352;2022-10-26T00:14:38;7.97;;;4.47;;
41061;SDS011;26812;42.662;23.352;2022-10-26T00:17:03;7.50;;;3.75;;
41061;SDS011;26812;42.662;23.352;2022-10-26T00:19:31;8.95;;;4.15;;
41061;SDS011;26812;42.662;23.352;2022-10-26T00:21:57;13.32;;;4.20;;
41061;SDS011;26812;42.662;23.352;2022-10-26T00:24:23;7.55;;;4.22;;
41061;SDS011;26812;42.662;23.352;2022-10-26T00:26:48;7.65;;;5.35;;
41061;SDS011;26812;42.662;23.352;2022-10-26T00:29:13;10.10;;;4.93;;
41061;SDS011;26812;42.662;23.352;2022-10-26T00:31:39;9.20;;;4.05;;
41061;SDS011;26812;42.662;23.352;2022-10-26T00:34:04;6.22;;;3.90;;
41061;SDS011;26812;42.662;23.352;2022-10-26T00:36:30;7.22;;;4.32;;
41061;SDS011;26812;42.662;23.352;2022-10-26T00:38:56;7.20;;;4.55;;
41061;SDS011;26812;42.662;23.352;2022-10-26T00:41:25;8.55;;;4.70;;
41061;SDS011;26812;42.662;23.352;2022-10-26T00:43:53;10.93;;;4.50;;
41061;SDS011;26812;42.662;23.352;2022-10-26T00:49:09;6.82;;;3.80;;
41061;SDS011;26812;42.662;23.352;2022-10-26T00:51:43;7.13;;;3.88;;
41061;SDS011;26812;42.662;23.352;2022-10-26T00:54:13;9.27;;;4.75;;
41061;SDS011;26812;42.662;23.352;2022-10-26T00:56:42;10.40;;;4.18;;
41061;SDS011;26812;42.662;23.352;2022-10-26T00:59:09;6.22;;;3.40;;
41061;SDS011;26812;42.662;23.352;2022-10-26T01:01:37;7.90;;;3.88;;
41061;SDS011;26812;42.662;23.352;2022-10-26T01:04:04;6.72;;;3.60;;
41061;SDS011;26812;42.662;23.352;2022-10-26T01:06:30;7.68;;;3.50;;
41061;SDS011;26812;42.662;23.352;2022-10-26T01:08:57;6.07;;;3.67;;
41061;SDS011;26812;42.662;23.352;2022-10-26T01:11:22;6.50;;;3.85;;
41061;SDS011;26812;42.662;23.352;2022-10-26T01:13:49;5.88;;;3.92;;
41061;SDS011;26812;42.662;23.352;2022-10-26T01:16:24;7.55;;;3.20;;
41061;SDS011;26812;42.662;23.352;2022-10-26T01:22:20;8.20;;;3.95;;
41061;SDS011;26812;42.662;23.352;2022-10-26T01:27:39;6.20;;;4.32;;
41061;SDS011;26812;42.662;23.352;2022-10-26T01:38:21;7.22;;;3.83;;
41061;SDS011;26812;42.662;23.352;2022-10-26T01:43:32;6.75;;;3.67;;
41061;SDS011;26812;42.662;23.352;2022-10-26T01:46:02;8.05;;;3.92;;
41061;SDS011;26812;42.662;23.352;2022-10-26T01:48:30;5.35;;;3.58;;
41061;SDS011;26812;42.662;23.352;2022-10-26T01:50:58;7.43;;;3.72;;
41061;SDS011;26812;42.662;23.352;2022-10-26T01:53:25;6.82;;;3.97;;
41061;SDS011;26812;42.662;23.352;2022-10-26T01:55:53;7.03;;;3.80;;
41061;SDS011;26812;42.662;23.352;2022-10-26T02:03:44;7.82;;;5.00;;
41061;SDS011;26812;42.662;23.352;2022-10-26T02:11:58;6.15;;;3.63;;
41061;SDS011;26812;42.662;23.352;2022-10-26T02:14:50;4.63;;;3.95;;
41061;SDS011;26812;42.662;23.352;2022-10-26T02:20:06;6.20;;;3.33;;
41061;SDS011;26812;42.662;23.352;2022-10-26T02:22:42;9.50;;;4.25;;
41061;SDS011;26812;42.662;23.352;2022-10-26T02:25:13;8.95;;;3.67;;
41061;SDS011;26812;42.662;23.352;2022-10-26T02:27:44;9.68;;;4.07;;
41061;SDS011;26812;42.662;23.352;2022-10-26T02:30:13;9.20;;;4.85;;
41061;SDS011;26812;42.662;23.352;2022-10-26T02:32:40;7.13;;;3.80;;
41061;SDS011;26812;42.662;23.352;2022-10-26T02:35:12;12.07;;;6.10;;
41061;SDS011;26812;42.662;23.352;2022-10-26T02:37:39;9.88;;;6.47;;
41061;SDS011;26812;42.662;23.352;2022-10-26T02:40:09;12.05;;;6.40;;
41061;SDS011;26812;42.662;23.352;2022-10-26T02:42:41;8.82;;;5.75;;
41061;SDS011;26812;42.662;23.352;2022-10-26T02:45:10;15.13;;;6.50;;
41061;SDS011;26812;42.662;23.352;2022-10-26T02:47:41;14.77;;;7.00;;
41061;SDS011;26812;42.662;23.352;2022-10-26T02:50:06;12.30;;;6.82;;
41061;SDS011;26812;42.662;23.352;2022-10-26T02:52:53;11.85;;;7.20;;
41061;SDS011;26812;42.662;23.352;2022-10-26T02:55:31;12.05;;;6.53;;
41061;SDS011;26812;42.662;23.352;2022-10-26T02:58:05;10.25;;;6.38;;
41061;SDS011;26812;42.662;23.352;2022-10-26T03:00:36;9.20;;;6.45;;
41061;SDS011;26812;42.662;23.352;2022-10-26T03:03:02;10.82;;;6.65;;
41061;SDS011;26812;42.662;23.352;2022-10-26T03:05:29;14.05;;;7.55;;
41061;SDS011;26812;42.662;23.352;2022-10-26T03:08:01;13.68;;;7.40;;
41061;SDS011;26812;42.662;23.352;2022-10-26T03:10:27;10.10;;;7.18;;
41061;SDS011;26812;42.662;23.352;2022-10-26T03:12:52;16.35;;;7.47;;
41061;SDS011;26812;42.662;23.352;2022-10-26T03:15:18;11.48;;;7.53;;
41061;SDS011;26812;42.662;23.352;2022-10-26T03:17:44;10.68;;;7.93;;
41061;SDS011;26812;42.662;23.352;2022-10-26T03:20:10;15.23;;;7.85;;
41061;SDS011;26812;42.662;23.352;2022-10-26T03:22:38;13.43;;;8.38;;
41061;SDS011;26812;42.662;23.352;2022-10-26T03:25:04;15.35;;;8.25;;
41061;SDS011;26812;42.662;23.352;2022-10-26T03:27:30;13.20;;;7.40;;
41061;SDS011;26812;42.662;23.352;2022-10-26T03:30:04;12.32;;;7.43;;
41061;SDS011;26812;42.662;23.352;2022-10-26T03:32:30;15.65;;;7.13;;
41061;SDS011;26812;42.662;23.352;2022-10-26T03:34:55;14.35;;;7.72;;
41061;SDS011;26812;42.662;23.352;2022-10-26T03:37:20;12.18;;;6.75;;
41061;SDS011;26812;42.662;23.352;2022-10-26T03:39:46;12.90;;;6.40;;
41061;SDS011;26812;42.662;23.352;2022-10-26T03:42:11;13.27;;;6.85;;
41061;SDS011;26812;42.662;23.352;2022-10-26T03:44:37;11.05;;;5.95;;
41061;SDS011;26812;42.662;23.352;2022-10-26T03:47:02;13.43;;;6.03;;
41061;SDS011;26812;42.662;23.352;2022-10-26T03:49:27;10.85;;;6.03;;
41061;SDS011;26812;42.662;23.352;2022-10-26T03:51:53;12.10;;;6.07;;
41061;SDS011;26812;42.662;23.352;2022-10-26T03:54:18;13.20;;;6.28;;
41061;SDS011;26812;42.662;23.352;2022-10-26T03:56:43;10.68;;;6.05;;
41061;SDS011;26812;42.662;23.352;2022-10-26T03:59:09;11.48;;;5.80;;
41061;SDS011;26812;42.662;23.352;2022-10-26T04:01:34;10.38;;;6.15;;
41061;SDS011;26812;42.662;23.352;2022-10-26T04:04:15;10.23;;;5.97;;
41061;SDS011;26812;42.662;23.352;2022-10-26T04:06:47;9.63;;;5.95;;
41061;SDS011;26812;42.662;23.352;2022-10-26T04:09:12;9.00;;;5.63;;
41061;SDS011;26812;42.662;23.352;2022-10-26T04:11:38;11.80;;;5.32;;
41061;SDS011;26812;42.662;23.352;2022-10-26T04:14:03;10.07;;;6.13;;
41061;SDS011;26812;42.662;23.352;2022-10-26T04:16:29;13.50;;;6.28;;
41061;SDS011;26812;42.662;23.352;2022-10-26T04:18:54;10.23;;;6.43;;
41061;SDS011;26812;42.662;23.352;2022-10-26T04:21:20;11.95;;;6.47;;
41061;SDS011;26812;42.662;23.352;2022-10-26T04:23:45;13.30;;;6.43;;
41061;SDS011;26812;42.662;23.352;2022-10-26T04:26:10;9.68;;;6.60;;
41061;SDS011;26812;42.662;23.352;2022-10-26T04:28:36;8.90;;;5.85;;
41061;SDS011;26812;42.662;23.352;2022-10-26T04:31:01;13.50;;;5.90;;
41061;SDS011;26812;42.662;23.352;2022-10-26T04:33:27;8.65;;;5.22;;
41061;SDS011;26812;42.662;23.352;2022-10-26T04:35:57;11.20;;;6.18;;
41061;SDS011;26812;42.662;23.352;2022-10-26T04:38:25;9.63;;;5.80;;
41061;SDS011;26812;42.662;23.352;2022-10-26T04:40:51;9.38;;;6.32;;
41061;SDS011;26812;42.662;23.352;2022-10-26T04:43:16;11.38;;;5.70;;
41061;SDS011;26812;42.662;23.352;2022-10-26T04:45:42;12.07;;;6.35;;
41061;SDS011;26812;42.662;23.352;2022-10-26T04:48:10;10.07;;;5.32;;
41061;SDS011;26812;42.662;23.352;2022-10-26T04:50:37;13.40;;;6.00;;
41061;SDS011;26812;42.662;23.352;2022-10-26T04:53:03;9.02;;;5.43;;
41061;SDS011;26812;42.662;23.352;2022-10-26T04:55:32;6.38;;;4.72;;
41061;SDS011;26812;42.662;23.352;2022-10-26T04:57:58;8.25;;;5.25;;
41061;SDS011;26812;42.662;23.352;2022-10-26T05:00:23;8.57;;;5.18;;
41061;SDS011;26812;42.662;23.352;2022-10-26T05:02:48;10.95;;;5.82;;
41061;SDS011;26812;42.662;23.352;2022-10-26T05:05:14;11.10;;;6.03;;
41061;SDS011;26812;42.662;23.352;2022-10-26T05:07:39;10.05;;;4.60;;
41061;SDS011;26812;42.662;23.352;2022-10-26T05:10:05;12.25;;;5.82;;
41061;SDS011;26812;42.662;23.352;2022-10-26T05:12:31;6.40;;;5.03;;
41061;SDS011;26812;42.662;23.352;2022-10-26T05:14:57;10.82;;;5.13;;
41061;SDS011;26812;42.662;23.352;2022-10-26T05:17:26;7.70;;;4.88;;
41061;SDS011;26812;42.662;23.352;2022-10-26T05:19:52;12.63;;;6.35;;
41061;SDS011;26812;42.662;23.352;2022-10-26T05:22:23;9.57;;;5.47;;
41061;SDS011;26812;42.662;23.352;2022-10-26T05:24:52;11.80;;;5.63;;
41061;SDS011;26812;42.662;23.352;2022-10-26T05:27:25;9.98;;;5.30;;
41061;SDS011;26812;42.662;23.352;2022-10-26T05:29:51;8.57;;;5.47;;
41061;SDS011;26812;42.662;23.352;2022-10-26T05:32:16;8.23;;;5.22;;
41061;SDS011;26812;42.662;23.352;2022-10-26T05:34:42;9.63;;;5.95;;
41061;SDS011;26812;42.662;23.352;2022-10-26T05:37:08;8.35;;;5.97;;
41061;SDS011;26812;42.662;23.352;2022-10-26T05:39:33;14.93;;;6.13;;
41061;SDS011;26812;42.662;23.352;2022-10-26T05:41:58;13.80;;;7.47;;
41061;SDS011;26812;42.662;23.352;2022-10-26T05:44:24;16.05;;;9.40;;
41061;SDS011;26812;42.662;23.352;2022-10-26T05:46:49;17.90;;;9.95;;
41061;SDS011;26812;42.662;23.352;2022-10-26T05:49:15;15.60;;;9.75;;
41061;SDS011;26812;42.662;23.352;2022-10-26T05:51:40;22.02;;;9.65;;
41061;SDS011;26812;42.662;23.352;2022-10-26T05:54:06;19.17;;;10.27;;
41061;SDS011;26812;42.662;23.352;2022-10-26T05:56:38;20.60;;;9.70;;
41061;SDS011;26812;42.662;23.352;2022-10-26T05:59:14;17.42;;;9.40;;
41061;SDS011;26812;42.662;23.352;2022-10-26T06:06:55;23.75;;;11.40;;
41061;SDS011;26812;42.662;23.352;2022-10-26T06:09:22;19.05;;;11.93;;
41061;SDS011;26812;42.662;23.352;2022-10-26T06:11:48;15.63;;;9.98;;
41061;SDS011;26812;42.662;23.352;2022-10-26T06:14:14;21.05;;;11.30;;
41061;SDS011;26812;42.662;23.352;2022-10-26T06:19:42;16.33;;;9.05;;
41061;SDS011;26812;42.662;23.352;2022-10-26T06:30:18;15.43;;;8.00;;
41061;SDS011;26812;42.662;23.352;2022-10-26T06:32:47;18.55;;;9.18;;
41061;SDS011;26812;42.662;23.352;2022-10-26T06:37:51;15.18;;;8.95;;
41061;SDS011;26812;42.662;23.352;2022-10-26T06:40:18;11.20;;;6.63;;
41061;SDS011;26812;42.662;23.352;2022-10-26T06:42:44;9.75;;;5.47;;
41061;SDS011;26812;42.662;23.352;2022-10-26T06:45:11;9.43;;;5.38;;
41061;SDS011;26812;42.662;23.352;2022-10-26T06:55:43;7.97;;;5.40;;
41061;SDS011;26812;42.662;23.352;2022-10-26T07:00:50;8.20;;;4.78;;
41061;SDS011;26812;42.662;23.352;2022-10-26T07:03:18;7.00;;;4.72;;
41061;SDS011;26812;42.662;23.352;2022-10-26T07:05:44;9.23;;;6.15;;
41061;SDS011;26812;42.662;23.352;2022-10-26T07:08:10;7.93;;;4.93;;
41061;SDS011;26812;42.662;23.352;2022-10-26T07:10:36;5.32;;;4.57;;
41061;SDS011;26812;42.662;23.352;2022-10-26T07:13:06;5.78;;;5.13;;
41061;SDS011;26812;42.662;23.352;2022-10-26T07:15:32;7.47;;;4.90;;
41061;SDS011;26812;42.662;23.352;2022-10-26T07:17:59;11.13;;;4.57;;
41061;SDS011;26812;42.662;23.352;2022-10-26T07:20:25;6.28;;;4.63;;
41061;SDS011;26812;42.662;23.352;2022-10-26T07:22:51;7.38;;;4.75;;
41061;SDS011;26812;42.662;23.352;2022-10-26T07:25:17;5.90;;;4.50;;
41061;SDS011;26812;42.662;23.352;2022-10-26T07:27:42;7.95;;;4.50;;
41061;SDS011;26812;42.662;23.352;2022-10-26T07:30:08;9.60;;;4.13;;
41061;SDS011;26812;42.662;23.352;2022-10-26T07:32:34;4.85;;;4.35;;
41061;SDS011;26812;42.662;23.352;2022-10-26T07:34:59;6.32;;;3.75;;
41061;SDS011;26812;42.662;23.352;2022-10-26T07:37:25;5.32;;;3.97;;
41061;SDS011;26812;42.662;23.352;2022-10-26T07:39:50;6.50;;;4.63;;
41061;SDS011;26812;42.662;23.352;2022-10-26T07:42:15;6.40;;;4.28;;
41061;SDS011;26812;42.662;23.352;2022-10-26T07:44:41;11.60;;;7.32;;
41061;SDS011;26812;42.662;23.352;2022-10-26T07:47:06;8.18;;;4.05;;
41061;SDS011;26812;42.662;23.352;2022-10-26T07:49:32;5.22;;;2.92;;
41061;SDS011;26812;42.662;23.352;2022-10-26T07:51:57;5.22;;;3.35;;
41061;SDS011;26812;42.662;23.352;2022-10-26T07:54:22;4.50;;;3.15;;
41061;SDS011;26812;42.662;23.352;2022-10-26T07:56:48;4.70;;;2.85;;
41061;SDS011;26812;42.662;23.352;2022-10-26T07:59:14;6.65;;;4.10;;
41061;SDS011;26812;42.662;23.352;2022-10-26T08:01:44;6.82;;;3.97;;
41061;SDS011;26812;42.662;23.352;2022-10-26T08:04:10;6.75;;;3.90;;
41061;SDS011;26812;42.662;23.352;2022-10-26T08:06:35;8.00;;;4.72;;
41061;SDS011;26812;42.662;23.352;2022-10-26T08:09:01;6.50;;;3.63;;
41061;SDS011;26812;42.662;23.352;2022-10-26T08:11:26;6.53;;;3.95;;
41061;SDS011;26812;42.662;23.352;2022-10-26T08:13:53;6.80;;;4.07;;
41061;SDS011;26812;42.662;23.352;2022-10-26T08:16:19;9.20;;;4.25;;
41061;SDS011;26812;42.662;23.352;2022-10-26T08:18:49;7.57;;;4.03;;
41061;SDS011;26812;42.662;23.352;2022-10-26T08:21:15;5.80;;;4.10;;
41061;SDS011;26812;42.662;23.352;2022-10-26T08:23:41;6.00;;;3.35;;
41061;SDS011;26812;42.662;23.352;2022-10-26T08:26:07;5.55;;;3.42;;
41061;SDS011;26812;42.662;23.352;2022-10-26T08:28:35;7.32;;;3.72;;
41061;SDS011;26812;42.662;23.352;2022-10-26T08:31:01;7.25;;;3.42;;
41061;SDS011;26812;42.662;23.352;2022-10-26T08:33:26;4.43;;;3.35;;
41061;SDS011;26812;42.662;23.352;2022-10-26T08:35:55;6.05;;;3.50;;
41061;SDS011;26812;42.662;23.352;2022-10-26T08:38:25;6.05;;;4.07;;
41061;SDS011;26812;42.662;23.352;2022-10-26T08:40:50;5.45;;;3.20;;
41061;SDS011;26812;42.662;23.352;2022-10-26T08:43:25;6.07;;;3.53;;
41061;SDS011;26812;42.662;23.352;2022-10-26T08:46:12;5.97;;;3.20;;
41061;SDS011;26812;42.662;23.352;2022-10-26T08:48:58;6.20;;;3.35;;
41061;SDS011;26812;42.662;23.352;2022-10-26T08:51:30;5.55;;;3.20;;
41061;SDS011;26812;42.662;23.352;2022-10-26T08:54:11;5.32;;;3.47;;
41061;SDS011;26812;42.662;23.352;2022-10-26T08:56:58;7.07;;;3.92;;
41061;SDS011;26812;42.662;23.352;2022-10-26T08:59:33;5.35;;;3.10;;
41061;SDS011;26812;42.662;23.352;2022-10-26T09:02:02;5.32;;;3.10;;
41061;SDS011;26812;42.662;23.352;2022-10-26T09:04:35;8.32;;;3.25;;
41061;SDS011;26812;42.662;23.352;2022-10-26T09:12:11;4.05;;;3.40;;
41061;SDS011;26812;42.662;23.352;2022-10-26T09:23:25;6.00;;;2.95;;
41061;SDS011;26812;42.662;23.352;2022-10-26T09:29:11;5.75;;;2.47;;
41061;SDS011;26812;42.662;23.352;2022-10-26T09:31:39;3.67;;;2.03;;
41061;SDS011;26812;42.662;23.352;2022-10-26T09:34:07;4.13;;;2.33;;
41061;SDS011;26812;42.662;23.352;2022-10-26T09:36:42;3.60;;;2.70;;
41061;SDS011;26812;42.662;23.352;2022-10-26T09:45:00;3.00;;;2.03;;
41061;SDS011;26812;42.662;23.352;2022-10-26T09:47:36;4.65;;;1.70;;
41061;SDS011;26812;42.662;23.352;2022-10-26T09:52:46;3.60;;;2.00;;
41061;SDS011;26812;42.662;23.352;2022-10-26T09:55:12;3.85;;;2.00;;
41061;SDS011;26812;42.662;23.352;2022-10-26T09:57:41;3.67;;;1.48;;
41061;SDS011;26812;42.662;23.352;2022-10-26T10:00:15;5.72;;;1.20;;
41061;SDS011;26812;42.662;23.352;2022-10-26T10:02:42;4.00;;;2.28;;
41061;SDS011;26812;42.662;23.352;2022-10-26T10:05:43;3.55;;;2.33;;
41061;SDS011;26812;42.662;23.352;2022-10-26T10:08:14;7.35;;;2.00;;
41061;SDS011;26812;42.662;23.352;2022-10-26T10:10:57;4.88;;;1.83;;
41061;SDS011;26812;42.662;23.352;2022-10-26T10:13:26;4.18;;;1.73;;
41061;SDS011;26812;42.662;23.352;2022-10-26T10:18:35;2.63;;;1.25;;
41061;SDS011;26812;42.662;23.352;2022-10-26T10:21:03;2.75;;;1.20;;
41061;SDS011;26812;42.662;23.352;2022-10-26T10:23:36;4.20;;;1.48;;
41061;SDS011;26812;42.662;23.352;2022-10-26T10:26:12;2.00;;;1.10;;
41061;SDS011;26812;42.662;23.352;2022-10-26T10:28:38;3.25;;;1.42;;
41061;SDS011;26812;42.662;23.352;2022-10-26T10:31:17;4.78;;;1.42;;
41061;SDS011;26812;42.662;23.352;2022-10-26T10:33:46;3.65;;;1.35;;
41061;SDS011;26812;42.662;23.352;2022-10-26T10:36:17;2.33;;;1.63;;
41061;SDS011;26812;42.662;23.352;2022-10-26T10:38:44;4.28;;;1.83;;
41061;SDS011;26812;42.662;23.352;2022-10-26T10:41:15;3.38;;;1.52;;
41061;SDS011;26812;42.662;23.352;2022-10-26T10:44:05;2.45;;;1.67;;
41061;SDS011;26812;42.662;23.352;2022-10-26T10:46:47;1.30;;;1.15;;
41061;SDS011;26812;42.662;23.352;2022-10-26T10:49:19;3.03;;;1.10;;
41061;SDS011;26812;42.662;23.352;2022-10-26T10:51:49;2.80;;;1.40;;
41061;SDS011;26812;42.662;23.352;2022-10-26T10:56:48;3.13;;;1.73;;
41061;SDS011;26812;42.662;23.352;2022-10-26T11:07:01;3.30;;;2.00;;
41061;SDS011;26812;42.662;23.352;2022-10-26T11:09:30;2.55;;;1.33;;
41061;SDS011;26812;42.662;23.352;2022-10-26T11:12:01;4.80;;;1.73;;
41061;SDS011;26812;42.662;23.352;2022-10-26T11:14:32;3.40;;;1.60;;
41061;SDS011;26812;42.662;23.352;2022-10-26T11:17:37;3.78;;;1.80;;
41061;SDS011;26812;42.662;23.352;2022-10-26T11:20:02;2.90;;;1.73;;
41061;SDS011;26812;42.662;23.352;2022-10-26T11:22:29;5.50;;;1.90;;
41061;SDS011;26812;42.662;23.352;2022-10-26T11:27:31;3.05;;;1.33;;
41061;SDS011;26812;42.662;23.352;2022-10-26T11:32:49;3.95;;;1.50;;
41061;SDS011;26812;42.662;23.352;2022-10-26T11:37:58;3.13;;;1.65;;
41061;SDS011;26812;42.662;23.352;2022-10-26T11:40:33;2.45;;;1.50;;
41061;SDS011;26812;42.662;23.352;2022-10-26T11:43:20;2.25;;;1.30;;
41061;SDS011;26812;42.662;23.352;2022-10-26T11:53:54;2.60;;;1.33;;
41061;SDS011;26812;42.662;23.352;2022-10-26T11:56:55;1.38;;;1.17;;
41061;SDS011;26812;42.662;23.352;2022-10-26T11:59:23;1.67;;;1.30;;
41061;SDS011;26812;42.662;23.352;2022-10-26T12:01:52;3.60;;;1.20;;
41061;SDS011;26812;42.662;23.352;2022-10-26T12:04:27;2.25;;;1.20;;
41061;SDS011;26812;42.662;23.352;2022-10-26T12:06:55;1.52;;;0.95;;
41061;SDS011;26812;42.662;23.352;2022-10-26T12:09:31;2.25;;;0.95;;
41061;SDS011;26812;42.662;23.352;2022-10-26T12:22:35;1.97;;;1.10;;
41061;SDS011;26812;42.662;23.352;2022-10-26T12:25:25;2.67;;;1.10;;
41061;SDS011;26812;42.662;23.352;2022-10-26T12:32:56;1.42;;;0.90;;
41061;SDS011;26812;42.662;23.352;2022-10-26T12:35:33;0.77;;;0.60;;
41061;SDS011;26812;42.662;23.352;2022-10-26T12:38:01;2.53;;;1.15;;
41061;SDS011;26812;42.662;23.352;2022-10-26T12:40:47;1.35;;;0.70;;
41061;SDS011;26812;42.662;23.352;2022-10-26T12:45:39;1.92;;;0.85;;
41061;SDS011;26812;42.662;23.352;2022-10-26T12:48:19;3.40;;;0.90;;
41061;SDS011;26812;42.662;23.352;2022-10-26T12:50:45;1.17;;;0.60;;
41061;SDS011;26812;42.662;23.352;2022-10-26T12:53:14;0.70;;;0.52;;
41061;SDS011;26812;42.662;23.352;2022-10-26T13:08:50;1.88;;;0.75;;
41061;SDS011;26812;42.662;23.352;2022-10-26T13:11:31;7.63;;;1.25;;
41061;SDS011;26812;42.662;23.352;2022-10-26T13:14:00;1.60;;;0.65;;
41061;SDS011;26812;42.662;23.352;2022-10-26T13:16:28;2.05;;;0.75;;
41061;SDS011;26812;42.662;23.352;2022-10-26T13:18:54;2.10;;;1.10;;
41061;SDS011;26812;42.662;23.352;2022-10-26T13:21:21;1.48;;;0.63;;
41061;SDS011;26812;42.662;23.352;2022-10-26T13:23:57;2.40;;;1.00;;
41061;SDS011;26812;42.662;23.352;2022-10-26T13:26:29;2.15;;;0.68;;
41061;SDS011;26812;42.662;23.352;2022-10-26T13:29:10;3.05;;;0.63;;
41061;SDS011;26812;42.662;23.352;2022-10-26T13:34:11;1.52;;;0.90;;
41061;SDS011;26812;42.662;23.352;2022-10-26T13:36:43;1.02;;;0.82;;
41061;SDS011;26812;42.662;23.352;2022-10-26T13:39:16;1.73;;;0.75;;
41061;SDS011;26812;42.662;23.352;2022-10-26T13:41:45;2.42;;;1.00;;
41061;SDS011;26812;42.662;23.352;2022-10-26T13:44:15;3.55;;;0.85;;
41061;SDS011;26812;42.662;23.352;2022-10-26T13:46:58;3.78;;;1.45;;
41061;SDS011;26812;42.662;23.352;2022-10-26T13:49:29;1.67;;;1.00;;
41061;SDS011;26812;42.662;23.352;2022-10-26T13:51:59;2.85;;;0.65;;
41061;SDS011;26812;42.662;23.352;2022-10-26T13:58:13;2.15;;;0.82;;
41061;SDS011;26812;42.662;23.352;2022-10-26T14:00:34;5.18;;;1.80;;
41061;SDS011;26812;42.662;23.352;2022-10-26T14:03:10;5.07;;;1.85;;
41061;SDS011;26812;42.662;23.352;2022-10-26T14:05:42;3.20;;;1.42;;
41061;SDS011;26812;42.662;23.352;2022-10-26T14:08:14;1.42;;;0.52;;
41061;SDS011;26812;42.662;23.352;2022-10-26T14:10:43;2.17;;;0.68;;
41061;SDS011;26812;42.662;23.352;2022-10-26T14:13:13;2.17;;;0.90;;
41061;SDS011;26812;42.662;23.352;2022-10-26T14:15:42;2.38;;;1.40;;
41061;SDS011;26812;42.662;23.352;2022-10-26T14:18:27;4.07;;;2.58;;
41061;SDS011;26812;42.662;23.352;2022-10-26T14:21:01;2.50;;;0.93;;
41061;SDS011;26812;42.662;23.352;2022-10-26T14:23:33;2.00;;;0.90;;
41061;SDS011;26812;42.662;23.352;2022-10-26T14:26:01;3.90;;;1.17;;
41061;SDS011;26812;42.662;23.352;2022-10-26T14:28:28;2.53;;;1.20;;
41061;SDS011;26812;42.662;23.352;2022-10-26T14:31:11;2.58;;;1.05;;
41061;SDS011;26812;42.662;23.352;2022-10-26T14:33:44;3.00;;;1.27;;
41061;SDS011;26812;42.662;23.352;2022-10-26T14:36:09;1.58;;;1.30;;
41061;SDS011;26812;42.662;23.352;2022-10-26T14:38:37;2.90;;;1.30;;
41061;SDS011;26812;42.662;23.352;2022-10-26T14:41:08;2.53;;;1.10;;
41061;SDS011;26812;42.662;23.352;2022-10-26T14:43:35;2.30;;;1.20;;
41061;SDS011;26812;42.662;23.352;2022-10-26T14:46:01;3.83;;;2.40;;
41061;SDS011;26812;42.662;23.352;2022-10-26T14:48:27;4.32;;;1.38;;
41061;SDS011;26812;42.662;23.352;2022-10-26T14:50:59;4.10;;;1.58;;
41061;SDS011;26812;42.662;23.352;2022-10-26T14:53:31;3.92;;;1.63;;
41061;SDS011;26812;42.662;23.352;2022-10-26T14:56:01;4.28;;;1.45;;
41061;SDS011;26812;42.662;23.352;2022-10-26T14:58:28;1.77;;;1.33;;
41061;SDS011;26812;42.662;23.352;2022-10-26T15:01:12;4.25;;;1.92;;
41061;SDS011;26812;42.662;23.352;2022-10-26T15:04:00;2.97;;;2.10;;
41061;SDS011;26812;42.662;23.352;2022-10-26T15:06:41;2.20;;;1.52;;
41061;SDS011;26812;42.662;23.352;2022-10-26T15:12:00;2.88;;;1.63;;
41061;SDS011;26812;42.662;23.352;2022-10-26T15:14:29;4.93;;;1.98;;
41061;SDS011;26812;42.662;23.352;2022-10-26T15:16:55;4.20;;;1.88;;
41061;SDS011;26812;42.662;23.352;2022-10-26T15:19:22;4.30;;;2.20;;
41061;SDS011;26812;42.662;23.352;2022-10-26T15:21:51;3.95;;;1.95;;
41061;SDS011;26812;42.662;23.352;2022-10-26T15:24:36;3.00;;;2.05;;
41061;SDS011;26812;42.662;23.352;2022-10-26T15:27:02;3.72;;;2.15;;
41061;SDS011;26812;42.662;23.352;2022-10-26T15:32:05;7.65;;;4.18;;
41061;SDS011;26812;42.662;23.352;2022-10-26T15:37:35;4.22;;;2.65;;
41061;SDS011;26812;42.662;23.352;2022-10-26T15:40:02;5.55;;;3.22;;
41061;SDS011;26812;42.662;23.352;2022-10-26T15:42:28;5.38;;;2.47;;
41061;SDS011;26812;42.662;23.352;2022-10-26T15:44:53;5.38;;;2.60;;
41061;SDS011;26812;42.662;23.352;2022-10-26T15:47:19;5.07;;;2.30;;
41061;SDS011;26812;42.662;23.352;2022-10-26T15:49:45;7.28;;;2.97;;
41061;SDS011;26812;42.662;23.352;2022-10-26T15:52:11;7.35;;;3.38;;
41061;SDS011;26812;42.662;23.352;2022-10-26T15:54:37;6.95;;;3.97;;
41061;SDS011;26812;42.662;23.352;2022-10-26T15:57:03;5.47;;;2.15;;
41061;SDS011;26812;42.662;23.352;2022-10-26T15:59:28;5.78;;;1.80;;
41061;SDS011;26812;42.662;23.352;2022-10-26T16:01:54;3.15;;;2.30;;
41061;SDS011;26812;42.662;23.352;2022-10-26T16:04:19;5.93;;;3.10;;
41061;SDS011;26812;42.662;23.352;2022-10-26T16:06:44;4.18;;;2.80;;
41061;SDS011;26812;42.662;23.352;2022-10-26T16:09:14;7.85;;;2.95;;
41061;SDS011;26812;42.662;23.352;2022-10-26T16:11:41;4.53;;;2.22;;
41061;SDS011;26812;42.662;23.352;2022-10-26T16:14:08;3.08;;;1.77;;
41061;SDS011;26812;42.662;23.352;2022-10-26T16:16:34;7.25;;;2.72;;
41061;SDS011;26812;42.662;23.352;2022-10-26T16:19:00;2.78;;;2.38;;
41061;SDS011;26812;42.662;23.352;2022-10-26T16:21:26;6.07;;;2.78;;
41061;SDS011;26812;42.662;23.352;2022-10-26T16:23:53;4.22;;;2.65;;
41061;SDS011;26812;42.662;23.352;2022-10-26T16:26:20;4.88;;;1.92;;
41061;SDS011;26812;42.662;23.352;2022-10-26T16:28:46;3.70;;;2.17;;
41061;SDS011;26812;42.662;23.352;2022-10-26T16:31:13;5.22;;;3.83;;
41061;SDS011;26812;42.662;23.352;2022-10-26T16:33:39;8.63;;;4.57;;
41061;SDS011;26812;42.662;23.352;2022-10-26T16:36:05;3.90;;;2.60;;
41061;SDS011;26812;42.662;23.352;2022-10-26T16:38:31;3.25;;;1.95;;
41061;SDS011;26812;42.662;23.352;2022-10-26T16:43:33;2.83;;;1.88;;
41061;SDS011;26812;42.662;23.352;2022-10-26T16:46:03;4.70;;;2.50;;
41061;SDS011;26812;42.662;23.352;2022-10-26T16:48:50;4.50;;;2.30;;
41061;SDS011;26812;42.662;23.352;2022-10-26T16:51:17;3.85;;;2.08;;
41061;SDS011;26812;42.662;23.352;2022-10-26T16:53:45;6.32;;;2.30;;
41061;SDS011;26812;42.662;23.352;2022-10-26T16:56:14;5.50;;;2.85;;
41061;SDS011;26812;42.662;23.352;2022-10-26T16:58:40;3.25;;;2.10;;
41061;SDS011;26812;42.662;23.352;2022-10-26T17:01:06;7.25;;;3.70;;
41061;SDS011;26812;42.662;23.352;2022-10-26T17:03:33;3.65;;;2.97;;
41061;SDS011;26812;42.662;23.352;2022-10-26T17:05:59;7.60;;;4.35;;
41061;SDS011;26812;42.662;23.352;2022-10-26T17:08:26;9.25;;;3.67;;
41061;SDS011;26812;42.662;23.352;2022-10-26T17:10:52;7.03;;;2.90;;
41061;SDS011;26812;42.662;23.352;2022-10-26T17:13:18;5.05;;;3.20;;
41061;SDS011;26812;42.662;23.352;2022-10-26T17:15:44;5.57;;;3.90;;
41061;SDS011;26812;42.662;23.352;2022-10-26T17:18:10;8.40;;;4.60;;
41061;SDS011;26812;42.662;23.352;2022-10-26T17:20:36;8.07;;;4.75;;
41061;SDS011;26812;42.662;23.352;2022-10-26T17:23:02;9.30;;;5.80;;
41061;SDS011;26812;42.662;23.352;2022-10-26T17:25:28;10.57;;;7.15;;
41061;SDS011;26812;42.662;23.352;2022-10-26T17:27:53;8.60;;;5.55;;
41061;SDS011;26812;42.662;23.352;2022-10-26T17:30:20;7.82;;;4.13;;